Hao, French Polynesia
Current Conditions -  °F | °C
As of 4:00 PM on Saturday 22 Nov 2014 (Local Time) from NTAA Reporting Station
Scattered Clouds Scattered Clouds  
Wind Chill: 88°   Ceiling: Unl
Heat Index: 96°   Visibility: 6mi
Dew Point: 73°   Wind: 15mph
Humidity: 62%   Direction: 50°NE
Pressure: 29.83"   Gusts: NA
Location:  18.25°S, 140.9°W
Report Text: NTAA 230100Z 05013KT 9999 SCT020 31/23 Q1010 WS ALL RWY NOSIG
Loading
Personal Weather Stations






























Interactive Weather Map New forecast layout! Learn more

10-Day Weather Forecast

Advertisements
Track Severe Weather on mobile